Terminal Aerodrome Forecast
Issued by NWS Shreveport, LA

Home | Current Version | Previous Version | Text Only | Print | Product List | Glossary On
Versions: 1 2 3 4 5 6 7 8 9 10 11 12 13 14 15 16
782
FTUS44 KSHV 281728
TAFLFK
TAF
KLFK 281728Z 2818/0118 18016G25KT P6SM OVC025
     FM282100 19015G22KT P6SM BKN035
     FM010300 17011KT P6SM OVC015
     FM010600 20008KT 3SM BR OVC009
     FM011500 30008KT P6SM BKN015
     FM011700 33010KT P6SM FEW025=

USA.gov is the U.S. government's official web portal to all federal, state and local government web resources and services.